Lunenburg, MA

9:43 PM EST on November 22, 2014 (GMT -0500)
KMALUNEN1 | Change Station
CLOSE
Current Station
Personal Weather Station
Location: Lunenburg, MA
Elevation: 390 ft
Nearby Weather Stations
Active Advisory: Special Statement

Elev 390 ft 42.56 °N, 71.72 °W | Updated 2 seconds ago

Mostly Cloudy
Mostly Cloudy
39.8 °F
Feels Like 36 °F
N
5.0
Wind Variable Wind from WSW
Gusts 6.0 mph

Today
High -- | Low -- °F
--% Chance of Precip.
Yesterday
High -- | Low -- °F
Precip. -- in
6:46 AM 4:18 PM
New Moon, 0% visible
Pressure 30.09 in
Visibility 10.0 miles
Clouds Mostly Cloudy 3200 ft
Mostly Cloudy 5500 ft
Windchill 36 °F
Dew Point 15 °F
Humidity 36%
Rainfall 0.00 in
Snow Depth Not available.
UV 0 out of 12
Pollen .10 out of 12
Air Quality Not available.
Flu Activity Not available.
METAR KFIT 230152Z AUTO 24009KT 210V270 10SM BKN032 BKN055 05/M11 A3007 RMK AO2 SLP188 T00501106

More Conditions Fewer Conditions

Pressure 30.09 in
Visibility 10.0 miles
Clouds Mostly Cloudy 3200 ft
Mostly Cloudy 5500 ft
Windchill 36 °F
Dew Point 15 °F
Humidity 36%
Rainfall 0.00 in
Snow Depth Not available.
UV 0 out of 12
Pollen .10 out of 12
Air Quality Not available.
Flu Activity Not available.
METAR KFIT 230152Z AUTO 24009KT 210V270 10SM BKN032 BKN055 05/M11 A3007 RMK AO2 SLP188 T00501106

More Conditions Fewer Conditions

10-Day Weather Forecast

Almanac

Astronomy

Nov. 22, 2014 Rise Set
Actual Time
Civil Twilight
Nautical Twilight
Astronomical Twilight
Moon
Length of Visible Light
Length of Day
Tomorrow will be .
, % of the Moon is Illuminated

Today's Extremes

State Highs State Lows

Community

WunderPhotos

Upload Photos

1,772,978 photos uploaded!

WunderBlogs® & News

Nearby

Air Quality

  Air Quality AQ Index Pollutant
Not available.

Snow Depth

Station Depth Elevation

Earthquake Activity

City Distance Mag. Time & Date
Minimum magnitude displayed is 2.5.

Coastal Water Temperatures

Place Temperature

Nearby Weather Stations